Avon Lake, Ohio
Current Conditions -  °F | °C
As of 11:51 AM on Saturday 22 Nov 2014 (Local Time) from KCLE Reporting Station
Overcast Overcast  
Wind Chill: 30°   Ceiling: 4100
Heat Index: 38°   Visibility: 8mi
Dew Point: 34°   Wind: 14mph
Humidity: 86%   Direction: 200°SSW
Pressure: 30.15"   Gusts: NA
Location:  41.51°N, 82.02°W
Report Text: KCLE 221651Z 20012KT 8SM OVC041 03/01 A3015 RMK AO2 RAE14 SLP218 P0000 T00330011 $
Loading
Personal Weather Stations






























Interactive Weather Map New forecast layout! Learn more

10-Day Weather Forecast

Advertisements
Track Severe Weather on mobile